Savant Lake, Canada
Current Conditions -  °F | °C
As of 7:00 PM on Friday 28 Nov 2014 (Local Time) from CYXL Reporting Station
Overcast Overcast  
Wind Chill:   Ceiling: 7900
Heat Index:   Visibility: 15mi
Dew Point: -2°   Wind: 3mph
Humidity: 67%   Direction: 120°ESE
Pressure: 29.86"   Gusts: NA
Location:  50.23°N, 90.72°W
Report Text: CYXL 290100Z 12003KT 090V160 15SM BKN079 OVC130 M14/M19 A2986 RMK AC5AC3 SLP153
Loading
Personal Weather Stations






























Interactive Weather Map New forecast layout! Learn more

10-Day Weather Forecast

Advertisements
Track Severe Weather on mobile